首页
METAR-TAF:

METAR-TAF

机场 :

開羅國際機場

开罗, 埃及

纬度: 30-08N, 经度: 031-24E, 海拔: 64米

当前天气观测

该预报发布于45分钟前的01:00 UTC
风速5节,风向
温度 21°C
湿度 69%
气压 1010 hPa
能见度10公里或以上
1500米以下无云,无积雨云

METAR: HECA 170100Z 08005KT CAVOK 21/15 Q1010 NOSIG

时间: 03:45 (01:45 UTC)

预报

该预报发布于2小时和45分钟前的23:00 UTC
预报有效从17日的 00点(UTC)到 18日的 06点(UTC)
风速12节,风向东北
能见度10公里或以上
1500米以下无云,无积雨云
短暂存在
从 17日的 00点(UTC)到 17日的 07点(UTC)
风速2节,风向多变
能見度: 4000
成为
从 17日的 08点(UTC)到 17日的 10点(UTC)
风速12节,风向南转西南
短暂存在
从 17日的 08点(UTC)到 17日的 21点(UTC)
风速12节,风向南转西南,有时为25节阵风
能見度: 2000
扬沙
几率 30% :
短暂存在
从 17日的 12点(UTC)到 17日的 18点(UTC)
能見度: 0600
沙暴
成为
从 17日的 22点(UTC)到 17日的 24点(UTC)

TAF: HECA 162300Z 1700/1806 04012KT CAVOK TEMPO 1700/1707 VRB02KT 4000 HZ NSC BECMG 1708/1710 20012KT TEMPO 1708/1721 20012G25KT 2000 SA PROB30 TEMPO 1712/1718 0600 SS BECMG 1722/1724 28007K

超过4000个机场的气象观测和天气预报(METAR&TAF报告)。

可查询的气象台以黄色和红色小点在地图上表示。

将鼠标移到小点上方,可查看气象台名称。

然后点击查看天气观测和预报。

如需切换地图:点击带黑十字的绿色按钮放大地图;点击带横线的绿色按钮缩小地图;或者点击绿色箭头查看邻近地区的地图。


METAR-TAF: